createdAt,value
2018-12-16T00:00:45.958Z,82.94
2018-12-16T00:03:18.568Z,82.78
2018-12-16T00:05:51.044Z,82.81
2018-12-16T00:08:21.928Z,82.94
2018-12-16T00:10:52.689Z,83.06
2018-12-16T00:13:23.222Z,82.78
2018-12-16T00:15:54.033Z,82.55
2018-12-16T00:18:24.700Z,82.36
2018-12-16T00:20:55.596Z,82.17
2018-12-16T00:23:26.523Z,82.21
2018-12-16T00:25:57.350Z,81.69
2018-12-16T00:28:28.199Z,81.96
2018-12-16T00:30:59.415Z,82.42
2018-12-16T00:33:30.357Z,82.68
2018-12-16T00:36:01.933Z,82.45
2018-12-16T00:38:32.906Z,82.54
2018-12-16T00:41:03.801Z,82.96
2018-12-16T00:43:34.592Z,82.23
2018-12-16T00:46:05.574Z,82.35
2018-12-16T00:48:36.445Z,82.97
2018-12-16T00:51:07.327Z,82.88
2018-12-16T00:53:38.189Z,83.09
2018-12-16T00:56:08.941Z,82.63
2018-12-16T00:58:39.492Z,82.43
2018-12-16T01:01:10.423Z,82.05
2018-12-16T01:03:41.487Z,81.34
2018-12-16T01:06:12.575Z,81.84
2018-12-16T01:08:43.452Z,81.51
2018-12-16T01:11:14.233Z,81.70
2018-12-16T01:13:45.112Z,81.33
2018-12-16T01:16:15.987Z,81.58
2018-12-16T01:18:46.906Z,82.21
2018-12-16T01:21:17.832Z,82.42
2018-12-16T01:23:48.807Z,82.42
2018-12-16T01:26:19.630Z,82.80
2018-12-16T01:28:50.470Z,82.74
2018-12-16T01:31:21.206Z,82.57
2018-12-16T01:33:52.082Z,82.46
2018-12-16T01:36:22.813Z,82.83
2018-12-16T01:38:53.615Z,82.53
2018-12-16T01:41:24.257Z,81.32
2018-12-16T01:43:55.020Z,81.68
2018-12-16T01:46:25.844Z,81.21
2018-12-16T01:48:56.599Z,80.78
2018-12-16T01:51:27.424Z,81.04
2018-12-16T01:53:58.220Z,81.05
2018-12-16T01:56:29.059Z,80.80
2018-12-16T01:58:59.855Z,80.68
2018-12-16T02:01:30.618Z,80.40
2018-12-16T02:04:01.327Z,79.93
2018-12-16T02:06:32.023Z,79.76
2018-12-16T02:09:03.396Z,80.10
2018-12-16T02:11:35.937Z,80.08
2018-12-16T02:14:06.763Z,79.67
2018-12-16T02:16:37.602Z,79.73
2018-12-16T02:19:08.387Z,80.18
2018-12-16T02:21:39.518Z,80.16
2018-12-16T02:24:10.491Z,80.43
2018-12-16T02:26:41.351Z,80.60
2018-12-16T02:29:12.264Z,80.96
2018-12-16T02:31:43.254Z,80.72
2018-12-16T02:34:14.209Z,80.50
2018-12-16T02:36:45.345Z,80.71
2018-12-16T02:39:16.269Z,80.64
2018-12-16T02:41:47.274Z,80.71
2018-12-16T02:44:18.111Z,80.44
2018-12-16T02:46:49.071Z,80.80
2018-12-16T02:49:20.414Z,80.66
2018-12-16T02:51:51.179Z,80.48
2018-12-16T02:54:21.895Z,80.50
2018-12-16T02:56:52.822Z,79.55
2018-12-16T02:59:23.754Z,80.33
2018-12-16T03:01:54.798Z,80.38
2018-12-16T03:04:25.566Z,80.07
2018-12-16T03:06:56.584Z,79.59
2018-12-16T03:09:27.466Z,79.91
2018-12-16T03:11:58.294Z,80.07
2018-12-16T03:14:29.014Z,82.10
2018-12-16T03:16:59.777Z,81.04
2018-12-16T03:19:30.546Z,80.77
2018-12-16T03:22:01.405Z,80.47
2018-12-16T03:24:32.070Z,81.67
2018-12-16T03:27:03.002Z,81.74
2018-12-16T03:29:33.761Z,81.49
2018-12-16T03:32:04.722Z,81.95
2018-12-16T03:34:35.771Z,82.47
2018-12-16T03:37:06.623Z,83.39
2018-12-16T03:39:37.313Z,83.93
2018-12-16T03:42:10.299Z,84.56
2018-12-16T03:44:41.107Z,85.01
2018-12-16T03:47:11.986Z,84.83
2018-12-16T03:49:42.785Z,85.47
2018-12-16T03:52:13.659Z,85.21
2018-12-16T03:54:44.234Z,85.07
2018-12-16T03:57:15.019Z,84.49
2018-12-16T03:59:45.593Z,85.26
2018-12-16T04:02:16.413Z,86.34
2018-12-16T04:04:47.276Z,86.02
2018-12-16T04:07:18.030Z,86.13
2018-12-16T04:09:49.219Z,86.13
2018-12-16T04:12:20.052Z,85.96
2018-12-16T04:14:50.764Z,86.18
2018-12-16T04:17:21.674Z,85.60
2018-12-16T04:19:52.343Z,86.05
2018-12-16T04:22:23.104Z,86.75
2018-12-16T04:24:54.052Z,86.82
2018-12-16T04:27:24.919Z,86.15
2018-12-16T04:29:55.908Z,86.94
2018-12-16T04:32:26.886Z,86.91
2018-12-16T04:34:58.066Z,87.27
2018-12-16T04:37:29.027Z,86.89
2018-12-16T04:39:59.872Z,86.58
2018-12-16T04:42:30.774Z,86.66
2018-12-16T04:45:01.633Z,87.14
2018-12-16T04:47:33.314Z,85.52
2018-12-16T04:50:04.570Z,84.79
2018-12-16T04:52:35.506Z,84.75
2018-12-16T04:55:06.377Z,85.26
2018-12-16T04:57:37.468Z,85.36
2018-12-16T05:00:08.003Z,86.77
2018-12-16T05:02:38.887Z,86.71
2018-12-16T05:05:09.458Z,86.83
2018-12-16T05:07:40.232Z,87.11
2018-12-16T05:10:28.585Z,87.21
2018-12-16T05:12:59.569Z,86.52
2018-12-16T05:15:30.339Z,87.25
2018-12-16T05:18:01.201Z,86.93
2018-12-16T05:20:32.007Z,86.02
2018-12-16T05:23:02.877Z,86.61
2018-12-16T05:25:35.526Z,86.80
2018-12-16T05:28:06.335Z,86.17
2018-12-16T05:30:36.817Z,85.96
2018-12-16T05:33:07.917Z,86.21
2018-12-16T05:35:38.821Z,85.60
2018-12-16T05:38:09.677Z,85.28
2018-12-16T05:40:40.562Z,85.57
2018-12-16T05:43:11.304Z,85.65
2018-12-16T05:45:41.956Z,84.85
2018-12-16T05:48:13.862Z,84.90
2018-12-16T05:50:44.713Z,85.11
2018-12-16T05:53:15.449Z,84.55
2018-12-16T05:55:46.214Z,84.81
2018-12-16T05:58:17.091Z,84.68
2018-12-16T06:00:47.741Z,84.97
2018-12-16T06:03:18.328Z,84.44
2018-12-16T06:05:49.755Z,84.27
2018-12-16T06:08:20.662Z,84.30
2018-12-16T06:10:51.515Z,84.35
2018-12-16T06:13:22.220Z,84.50
2018-12-16T06:15:52.988Z,84.17
2018-12-16T06:18:23.903Z,83.43
2018-12-16T06:20:54.671Z,83.14
2018-12-16T06:23:26.590Z,83.62
2018-12-16T06:25:57.495Z,82.62
2018-12-16T06:28:28.148Z,82.96
2018-12-16T06:30:58.893Z,83.53
2018-12-16T06:33:29.596Z,83.18
2018-12-16T06:36:00.398Z,83.13
2018-12-16T06:38:31.720Z,82.56
2018-12-16T06:41:02.512Z,81.92
2018-12-16T06:43:33.791Z,80.77
2018-12-16T06:46:04.283Z,81.41
2018-12-16T06:48:34.917Z,81.61
2018-12-16T06:51:05.569Z,81.26
2018-12-16T06:53:36.256Z,80.44
2018-12-16T06:56:06.849Z,80.63
2018-12-16T06:58:37.797Z,81.68
2018-12-16T07:01:08.628Z,81.12
2018-12-16T07:03:39.471Z,80.62
2018-12-16T07:06:10.185Z,81.44
2018-12-16T07:08:40.739Z,81.62
2018-12-16T07:11:11.552Z,82.11
2018-12-16T07:13:42.384Z,82.44
2018-12-16T07:16:13.207Z,81.86
2018-12-16T07:18:44.111Z,81.87
2018-12-16T07:21:14.840Z,82.85
2018-12-16T07:23:45.777Z,82.45
2018-12-16T07:26:16.899Z,81.73
2018-12-16T07:28:47.816Z,81.17
2018-12-16T07:31:18.946Z,80.37
2018-12-16T07:33:49.816Z,80.36
2018-12-16T07:36:20.656Z,81.01
2018-12-16T07:38:51.670Z,81.40
2018-12-16T07:41:22.489Z,81.12
2018-12-16T07:43:53.378Z,81.38
2018-12-16T07:46:24.204Z,81.23
2018-12-16T07:48:56.834Z,80.00
2018-12-16T07:51:27.693Z,80.91
2018-12-16T07:53:58.507Z,81.69
2018-12-16T07:56:29.225Z,80.72
2018-12-16T07:59:00.180Z,80.71
2018-12-16T08:01:30.963Z,80.94
2018-12-16T08:04:01.909Z,81.00
2018-12-16T08:06:32.585Z,82.02
2018-12-16T08:09:06.218Z,82.08
2018-12-16T08:11:38.940Z,80.65
2018-12-16T08:14:09.753Z,80.56
2018-12-16T08:16:40.611Z,80.92
2018-12-16T08:19:11.611Z,80.47
2018-12-16T08:21:42.378Z,80.16
2018-12-16T08:24:13.296Z,81.12
2018-12-16T08:26:43.815Z,79.83
2018-12-16T08:29:14.616Z,80.25
2018-12-16T08:31:45.337Z,80.89
2018-12-16T08:34:16.303Z,80.34
2018-12-16T08:36:47.081Z,81.20
2018-12-16T08:39:17.834Z,81.36
2018-12-16T08:41:48.677Z,82.05
2018-12-16T08:44:19.555Z,80.86
2018-12-16T08:46:50.450Z,82.08
2018-12-16T08:49:21.413Z,82.22
2018-12-16T08:51:52.180Z,81.98
2018-12-16T08:54:29.830Z,82.52
2018-12-16T08:56:55.700Z,82.06
2018-12-16T08:59:26.604Z,83.22
2018-12-16T09:01:57.423Z,82.43
2018-12-16T09:04:28.301Z,83.63
2018-12-16T09:06:59.118Z,85.09
2018-12-16T09:09:30.592Z,84.33
2018-12-16T09:12:01.651Z,84.52
2018-12-16T09:14:32.552Z,84.49
2018-12-16T09:17:03.086Z,86.32
2018-12-16T09:19:34.111Z,85.76
2018-12-16T09:22:05.081Z,87.52
2018-12-16T09:24:37.429Z,87.88
2018-12-16T09:27:08.631Z,87.29
2018-12-16T09:29:39.530Z,88.62
2018-12-16T09:32:10.194Z,89.51
2018-12-16T09:34:41.073Z,88.87
2018-12-16T09:37:12.054Z,89.94
2018-12-16T09:39:42.936Z,90.23
2018-12-16T09:42:13.773Z,90.21
2018-12-16T09:44:46.028Z,89.75
2018-12-16T09:47:16.606Z,90.34
2018-12-16T09:49:47.476Z,89.42
2018-12-16T09:52:18.433Z,89.51
2018-12-16T09:54:49.223Z,90.44
2018-12-16T09:57:19.921Z,89.78
2018-12-16T09:59:50.831Z,90.62
2018-12-16T10:02:21.728Z,89.53
2018-12-16T10:04:52.320Z,89.79
2018-12-16T10:07:23.375Z,89.65
2018-12-16T10:09:54.275Z,90.57
2018-12-16T10:12:24.986Z,89.59
2018-12-16T10:14:57.115Z,89.64
2018-12-16T10:17:28.109Z,89.63
2018-12-16T10:19:58.908Z,89.92
2018-12-16T10:22:29.752Z,90.34
2018-12-16T10:25:00.478Z,90.83
2018-12-16T10:27:31.317Z,89.50
2018-12-16T10:30:02.152Z,90.47
2018-12-16T10:32:32.671Z,90.04
2018-12-16T10:35:03.607Z,89.99
2018-12-16T10:37:34.535Z,90.34
2018-12-16T10:40:06.598Z,89.76
2018-12-16T10:42:37.308Z,90.25
2018-12-16T10:45:09.417Z,90.52
2018-12-16T10:47:40.178Z,91.23
2018-12-16T10:50:11.283Z,91.25
2018-12-16T10:52:43.387Z,91.01
2018-12-16T10:55:14.316Z,90.83
2018-12-16T10:57:45.311Z,90.26
2018-12-16T11:00:20.991Z,90.33
2018-12-16T11:02:51.963Z,91.29
2018-12-16T11:05:23.263Z,90.03
2018-12-16T11:07:54.294Z,89.66
2018-12-16T11:10:25.151Z,89.73
2018-12-16T11:12:56.475Z,90.32
2018-12-16T11:15:27.125Z,90.22
2018-12-16T11:17:57.918Z,89.26
2018-12-16T11:20:29.252Z,90.31
2018-12-16T11:22:59.927Z,90.07
2018-12-16T11:25:31.421Z,90.86
2018-12-16T11:28:02.291Z,91.22
2018-12-16T11:30:33.198Z,90.75
2018-12-16T11:33:04.039Z,90.61
2018-12-16T11:35:34.869Z,90.75
2018-12-16T11:38:05.615Z,90.84
2018-12-16T11:40:36.737Z,91.06
2018-12-16T11:43:07.491Z,89.96
2018-12-16T11:45:38.242Z,89.79
2018-12-16T11:48:08.995Z,90.98
2018-12-16T11:50:40.184Z,89.90
2018-12-16T11:53:10.929Z,90.22
2018-12-16T11:55:41.710Z,91.04
2018-12-16T11:58:12.933Z,89.76
2018-12-16T12:00:43.728Z,90.15
2018-12-16T12:03:14.439Z,89.86
2018-12-16T12:05:47.094Z,90.06
2018-12-16T12:08:17.859Z,88.27
2018-12-16T12:10:48.542Z,89.43
2018-12-16T12:13:20.346Z,88.70
2018-12-16T12:15:51.272Z,88.71
2018-12-16T12:18:22.284Z,89.09
2018-12-16T12:20:53.233Z,90.32
2018-12-16T12:23:23.712Z,90.15
2018-12-16T12:25:54.287Z,90.39
2018-12-16T12:28:25.531Z,89.23
2018-12-16T12:30:56.848Z,89.98
2018-12-16T12:33:27.656Z,89.63
2018-12-16T12:35:58.491Z,88.33
2018-12-16T12:38:30.417Z,89.08
2018-12-16T12:41:01.343Z,88.82
2018-12-16T12:43:31.906Z,88.53
2018-12-16T12:46:02.751Z,89.11
2018-12-16T12:48:33.549Z,89.52
2018-12-16T12:51:04.323Z,88.60
2018-12-16T12:53:35.070Z,89.48
2018-12-16T12:56:05.991Z,88.17
2018-12-16T12:58:36.751Z,89.29
2018-12-16T13:01:07.582Z,88.53
2018-12-16T13:03:38.350Z,87.59
2018-12-16T13:06:09.339Z,88.35
2018-12-16T13:08:40.135Z,88.11
2018-12-16T13:11:11.033Z,87.71
2018-12-16T13:13:41.636Z,87.65
2018-12-16T13:16:12.218Z,88.77
2018-12-16T13:18:42.957Z,87.92
2018-12-16T13:21:13.799Z,88.97
2018-12-16T13:23:44.762Z,88.04
2018-12-16T13:26:15.720Z,88.84
2018-12-16T13:28:46.547Z,87.76
2018-12-16T13:31:17.429Z,88.55
2018-12-16T13:33:48.274Z,87.99
2018-12-16T13:36:19.350Z,87.98
2018-12-16T13:38:50.179Z,87.72
2018-12-16T13:41:20.949Z,88.78
2018-12-16T13:43:51.828Z,87.34
2018-12-16T13:46:22.415Z,87.82
2018-12-16T13:48:53.258Z,87.26
2018-12-16T13:51:24.079Z,88.02
2018-12-16T13:53:54.770Z,87.75
2018-12-16T13:56:25.740Z,88.14
2018-12-16T13:58:56.541Z,87.13
2018-12-16T14:01:27.510Z,88.30
2018-12-16T14:03:58.370Z,88.67
2018-12-16T14:06:29.205Z,88.02
2018-12-16T14:09:00.065Z,88.77
2018-12-16T14:11:31.293Z,88.88
2018-12-16T14:14:01.955Z,90.01
2018-12-16T14:16:32.921Z,88.18
2018-12-16T14:19:03.363Z,88.71
2018-12-16T14:21:34.127Z,88.74
2018-12-16T14:24:04.976Z,88.76
2018-12-16T14:26:36.931Z,89.38
2018-12-16T14:29:07.794Z,88.25
2018-12-16T14:31:38.766Z,87.88
2018-12-16T14:34:09.660Z,88.01
2018-12-16T14:36:40.568Z,88.07
2018-12-16T14:39:11.437Z,88.07
2018-12-16T14:41:42.329Z,88.37
2018-12-16T14:44:13.127Z,88.15
2018-12-16T14:46:44.091Z,88.45
2018-12-16T14:49:14.808Z,89.55
2018-12-16T14:51:45.723Z,88.83
2018-12-16T14:54:16.461Z,89.28
2018-12-16T14:56:47.208Z,89.19
2018-12-16T14:59:17.892Z,88.80
2018-12-16T15:01:48.430Z,89.34
2018-12-16T15:04:23.262Z,89.87
2018-12-16T15:06:54.321Z,88.04
2018-12-16T15:09:24.905Z,87.87
2018-12-16T15:11:55.709Z,88.50
2018-12-16T15:14:26.542Z,88.59
2018-12-16T15:16:57.233Z,88.01
2018-12-16T15:19:28.164Z,88.46
2018-12-16T15:21:59.396Z,87.35
2018-12-16T15:24:30.189Z,87.26
2018-12-16T15:27:00.819Z,86.86
2018-12-16T15:29:31.955Z,85.99
2018-12-16T15:32:02.536Z,85.86
2018-12-16T15:34:33.046Z,85.07
2018-12-16T15:37:03.966Z,84.60
2018-12-16T15:39:34.848Z,85.70
2018-12-16T15:42:05.467Z,85.41
2018-12-16T15:44:36.252Z,84.31
2018-12-16T15:47:06.810Z,84.24
2018-12-16T15:49:37.571Z,85.92
2018-12-16T15:52:08.396Z,84.91
2018-12-16T15:54:39.482Z,85.39
2018-12-16T15:57:10.415Z,86.27
2018-12-16T15:59:41.196Z,85.06
2018-12-16T16:02:11.741Z,85.78
2018-12-16T16:04:42.567Z,85.91
2018-12-16T16:07:13.110Z,85.62
2018-12-16T16:09:43.995Z,86.21
2018-12-16T16:12:14.521Z,85.19
2018-12-16T16:14:45.410Z,86.60
2018-12-16T16:17:16.315Z,85.26
2018-12-16T16:19:47.053Z,85.66
2018-12-16T16:22:17.839Z,86.79
2018-12-16T16:24:48.599Z,86.57
2018-12-16T16:27:19.406Z,86.27
2018-12-16T16:29:50.574Z,86.29
2018-12-16T16:32:21.372Z,87.11
2018-12-16T16:34:52.487Z,86.35
2018-12-16T16:37:23.282Z,86.64
2018-12-16T16:39:54.148Z,87.09
2018-12-16T16:42:25.199Z,86.55
2018-12-16T16:44:55.857Z,86.39
2018-12-16T16:47:26.608Z,86.12
2018-12-16T16:49:57.328Z,86.44
2018-12-16T16:52:27.969Z,85.69
2018-12-16T16:54:58.797Z,85.04
2018-12-16T16:57:29.629Z,85.70
2018-12-16T17:00:00.567Z,84.43
2018-12-16T17:02:31.474Z,84.59
2018-12-16T17:05:02.328Z,83.77
2018-12-16T17:07:33.240Z,83.62
2018-12-16T17:10:04.735Z,83.58
2018-12-16T17:12:35.834Z,83.19
2018-12-16T17:15:08.102Z,82.81
2018-12-16T17:17:39.874Z,81.91
2018-12-16T17:20:11.436Z,83.10
2018-12-16T17:22:42.805Z,82.18
2018-12-16T17:25:13.835Z,81.56
2018-12-16T17:27:44.535Z,81.84
2018-12-16T17:30:15.550Z,82.19
2018-12-16T17:32:46.570Z,82.44
2018-12-16T17:35:17.244Z,82.40
2018-12-16T17:37:47.761Z,81.96
2018-12-16T17:40:18.610Z,82.70
2018-12-16T17:42:50.368Z,81.63
2018-12-16T17:45:21.222Z,81.47
2018-12-16T17:47:53.797Z,80.73
2018-12-16T17:50:24.504Z,81.18
2018-12-16T17:52:55.063Z,81.83
2018-12-16T17:55:25.852Z,81.21
2018-12-16T17:57:56.632Z,80.59
2018-12-16T18:00:27.991Z,79.68
2018-12-16T18:02:58.860Z,80.01
2018-12-16T18:05:29.800Z,80.18
2018-12-16T18:08:01.048Z,80.29
2018-12-16T18:10:32.047Z,79.69
2018-12-16T18:13:02.904Z,80.33
2018-12-16T18:15:33.704Z,80.10
2018-12-16T18:18:04.522Z,80.41
2018-12-16T18:20:35.231Z,78.81
2018-12-16T18:23:06.178Z,79.24
2018-12-16T18:25:37.163Z,79.56
2018-12-16T18:28:08.255Z,78.87
2018-12-16T18:30:38.977Z,79.13
2018-12-16T18:33:10.187Z,79.03
2018-12-16T18:35:40.911Z,79.23
2018-12-16T18:38:12.041Z,78.60
2018-12-16T18:40:42.725Z,77.94
2018-12-16T18:43:13.919Z,77.90
2018-12-16T18:45:44.875Z,77.99
2018-12-16T18:48:15.607Z,77.95
2018-12-16T18:50:46.331Z,78.60
2018-12-16T18:53:17.107Z,78.41
2018-12-16T18:55:47.988Z,77.16
2018-12-16T18:58:18.866Z,78.66
2018-12-16T19:00:49.505Z,79.49
2018-12-16T19:03:20.279Z,78.94
2018-12-16T19:05:51.150Z,78.95
2018-12-16T19:08:22.159Z,79.01
2018-12-16T19:10:52.739Z,78.72
2018-12-16T19:13:23.682Z,79.51
2018-12-16T19:15:54.604Z,78.54
2018-12-16T19:18:26.595Z,78.95
2018-12-16T19:20:57.089Z,78.82
2018-12-16T19:23:28.014Z,78.61
2018-12-16T19:25:58.858Z,80.06
2018-12-16T19:28:29.740Z,78.97
2018-12-16T19:31:00.538Z,78.51
2018-12-16T19:33:31.414Z,78.23
2018-12-16T19:36:02.190Z,78.58
2018-12-16T19:38:33.315Z,78.62
2018-12-16T19:41:04.156Z,78.10
2018-12-16T19:43:36.679Z,78.68
2018-12-16T19:46:07.471Z,77.60
2018-12-16T19:48:38.558Z,78.02
2018-12-16T19:51:09.255Z,78.48
2018-12-16T19:53:39.856Z,78.17
2018-12-16T19:56:10.731Z,78.01
2018-12-16T19:58:41.399Z,77.61
2018-12-16T20:01:12.073Z,76.86
2018-12-16T20:03:47.875Z,77.52
2018-12-16T20:06:23.481Z,77.60
2018-12-16T20:08:54.007Z,77.52
2018-12-16T20:11:24.513Z,77.86
2018-12-16T20:13:54.974Z,77.35
2018-12-16T20:16:25.508Z,77.78
2018-12-16T20:18:56.303Z,77.78
2018-12-16T20:21:27.203Z,77.54
2018-12-16T20:23:57.728Z,77.14
2018-12-16T20:26:28.547Z,76.96
2018-12-16T20:28:59.495Z,78.00
2018-12-16T20:31:31.622Z,77.35
2018-12-16T20:34:08.379Z,77.36
2018-12-16T20:36:39.131Z,77.79
2018-12-16T20:39:10.114Z,77.67
2018-12-16T20:41:40.901Z,76.94
2018-12-16T20:44:11.422Z,78.00
2018-12-16T20:46:41.907Z,76.94
2018-12-16T20:49:12.699Z,76.13
2018-12-16T20:51:43.467Z,76.95
2018-12-16T20:54:14.460Z,76.66
2018-12-16T20:56:45.405Z,76.68
2018-12-16T20:59:16.670Z,76.62
2018-12-16T21:01:48.644Z,76.46
2018-12-16T21:04:19.377Z,77.49
2018-12-16T21:06:50.307Z,76.43
2018-12-16T21:09:21.269Z,76.77
2018-12-16T21:11:56.936Z,76.28
2018-12-16T21:14:32.675Z,77.53
2018-12-16T21:17:08.220Z,76.58
2018-12-16T21:19:39.348Z,76.74
2018-12-16T21:22:12.423Z,77.03
2018-12-16T21:24:42.916Z,76.17
2018-12-16T21:27:14.224Z,76.95
2018-12-16T21:29:44.934Z,75.64
2018-12-16T21:32:15.875Z,76.16
2018-12-16T21:34:46.600Z,76.09
2018-12-16T21:37:17.215Z,75.82
2018-12-16T21:39:48.144Z,75.88
2018-12-16T21:42:18.726Z,75.86
2018-12-16T21:44:49.379Z,76.09
2018-12-16T21:47:20.110Z,77.07
2018-12-16T21:49:50.960Z,76.34
2018-12-16T21:52:21.843Z,75.91
2018-12-16T21:54:52.749Z,75.95
2018-12-16T21:57:23.206Z,76.94
2018-12-16T21:59:54.308Z,76.96
2018-12-16T22:02:25.102Z,76.31
2018-12-16T22:04:57.612Z,75.80
2018-12-16T22:07:28.308Z,76.45
2018-12-16T22:09:58.803Z,76.08
2018-12-16T22:12:29.729Z,75.62
2018-12-16T22:15:00.519Z,76.04
2018-12-16T22:17:31.354Z,75.62
2018-12-16T22:20:01.972Z,76.88
2018-12-16T22:22:32.835Z,77.08
2018-12-16T22:25:03.686Z,75.83
2018-12-16T22:27:40.201Z,76.81
2018-12-16T22:30:08.046Z,76.83
2018-12-16T22:32:38.804Z,76.54
2018-12-16T22:35:09.959Z,75.72
2018-12-16T22:37:40.592Z,75.71
2018-12-16T22:40:11.429Z,76.80
2018-12-16T22:42:42.138Z,76.04
2018-12-16T22:45:12.839Z,75.74
2018-12-16T22:47:43.704Z,75.10
2018-12-16T22:50:14.500Z,74.66
2018-12-16T22:52:45.384Z,75.92
2018-12-16T22:55:16.274Z,75.69
2018-12-16T22:57:47.253Z,76.00
2018-12-16T23:00:19.192Z,76.05
2018-12-16T23:02:51.970Z,75.18
2018-12-16T23:05:22.847Z,75.40
2018-12-16T23:07:53.656Z,75.58
2018-12-16T23:10:24.217Z,75.20
2018-12-16T23:12:54.922Z,75.85
2018-12-16T23:15:25.641Z,75.52
2018-12-16T23:17:56.473Z,75.11
2018-12-16T23:20:29.533Z,75.26
2018-12-16T23:23:00.348Z,74.65
2018-12-16T23:25:31.083Z,75.26
2018-12-16T23:28:01.921Z,74.53
2018-12-16T23:30:32.610Z,74.17
2018-12-16T23:33:03.402Z,74.77
2018-12-16T23:35:34.188Z,74.90
2018-12-16T23:38:04.863Z,74.50
2018-12-16T23:40:35.634Z,75.62
2018-12-16T23:43:06.207Z,75.81
2018-12-16T23:45:37.096Z,74.81
2018-12-16T23:48:07.739Z,76.07
2018-12-16T23:50:38.776Z,75.93
2018-12-16T23:53:09.202Z,76.59
2018-12-16T23:55:39.986Z,75.89
2018-12-16T23:58:10.690Z,75.63
